Meteo Giornale » Osservazioni meteo Cina » Zhengzhou
ore: 12:00 - Osservazioni Meteo Zhengzhou
Lat. 34° 43' N Lon. 113° 39' E Alt. 111 metri s.l.m.
30 °C
Sereno
Temp. 24 Ore
23 °C
34 °C
Nord/Nord-Est
25.2 Km/h
Dew point 17 °C
Umidità 45 %
Visibilità 10 Km
Il sole sorge alle ore 05:58
Il sole tramonta alle ore 18:52
| Data e Ora | Cielo e Fenomeni | T °C | DP °C | Um. % | Pres. hPa | Vis. km | Vento km/h | |
|---|---|---|---|---|---|---|---|---|
| Oggi h: 12:00 | Sereno | 30 | 17 | 45 | 1016 | 10 | N/NE 25.2 | |
| Oggi h: 11:00 | Sereno | 29 | 19 | 54 | 1017 | 10 | E/NE 21.6 | |
| Oggi h: 10:00 | Sereno | 28 | 19 | 58 | 1017 | 10 | NE 21.6 | |
| Oggi h: 09:00 | Sereno | 26 | 18 | 61 | 1016 | 10 | N/NE 25.2 | |
| Oggi h: 08:00 | Sereno | 25 | 17 | 61 | 1016 | 10 | N/NE 14.4 | |
| Oggi h: 07:00 | Sereno | 24 | 19 | 73 | 1016 | 10 | N/NE 14.4 | |
| Oggi h: 06:00 | Sereno | 24 | 18 | 69 | 1015 | 10 | N 14.4 | |
| Oggi h: 05:00 | Sereno | 24 | 17 | 64 | 1014 | 10 | N 10.8 | |
| Oggi h: 04:00 | Sereno | 23 | 16 | 64 | 1014 | 10 | N/NO 10.8 | |
| Oggi h: 03:00 | Sereno | 24 | 18 | 69 | 1014 | 10 | N 7.2 | |
| Oggi h: 02:00 | Sereno | 26 | 17 | 57 | 1014 | 10 | N 10.8 | |
| Oggi h: 01:00 | Sereno | 26 | 17 | 57 | 1014 | 10 | N 10.8 | |
| Oggi h: 00:00 | Sereno | 23 | 17 | 68 | 1014 | 10 | N 3.6 | |
| Ieri h: 23:00 | Sereno | 27 | 16 | 50 | 1013 | 10 | N 7.2 | |
| Ieri h: 22:00 | Sereno | 26 | 16 | 54 | 1013 | 10 | N 3.6 | |
| Ieri h: 21:00 | Sereno | 27 | 16 | 50 | 1013 | 10 | N 3.6 | |
| Ieri h: 20:00 | Sereno | 30 | 14 | 37 | 1012 | 10 | N 7.2 | |
| Ieri h: 19:00 | Sereno | 31 | 14 | 35 | 1011 | 10 | N 14.4 | |
| Ieri h: 18:00 | Sereno | 32 | 13 | 31 | 1011 | 10 | NE 18 | |
| Ieri h: 17:00 | Sereno | 34 | 12 | 26 | 1011 | 10 | N 18 | |
| Ieri h: 16:00 | Sereno | 33 | 13 | 29 | 1010 | 10 | NE 14.4 | |
| Ieri h: 15:00 | Sereno | 34 | 12 | 26 | 1011 | 10 | N 14.4 | |
| Ieri h: 14:00 | Sereno | 34 | 14 | 30 | 1011 | 10 | N 10.8 | |
| Ieri h: 13:00 | Sereno | 34 | 12 | 26 | 1011 | 10 | N/NO 14.4 | |



